Time;durP1;ratioP1;P1;durP2;ratioP2;P2;SDS_P1;SDS_P2;PMS_P1;PMS_P2;Temp;Humidity;BMP_temperature;BMP_pressure;BME280_temperature;BME280_humidity;BME280_pressure;Samples;Min_cycle;Max_cycle;Signal;HPM_P1;HPM_P2
2022/06/11 00:01:50;;;;;;;14.98;10.88;;;;;;;;;;5073712;28;20048;-66
2022/06/11 00:04:24;;;;;;;15.23;10.40;;;;;;;;;;5099063;28;20078;-66
2022/06/11 00:06:51;;;;;;;16.42;10.90;;;;;;;;;;5088288;28;20046;-66
2022/06/11 00:09:18;;;;;;;12.00;9.93;;;;;;;;;;5090850;28;20485;-66
2022/06/11 00:11:45;;;;;;;14.23;10.77;;;;;;;;;;5104689;28;20082;-66
2022/06/11 00:14:12;;;;;;;16.40;10.25;;;;;;;;;;5095006;28;20074;-66
2022/06/11 00:16:38;;;;;;;17.27;10.32;;;;;;;;;;5094851;28;20039;-66
2022/06/11 00:19:06;;;;;;;20.75;10.45;;;;;;;;;;5106610;28;20071;-66
2022/06/11 00:21:34;;;;;;;17.65;11.25;;;;;;;;;;5092347;28;20516;-66
2022/06/11 00:24:00;;;;;;;17.83;10.32;;;;;;;;;;5089568;28;20545;-66
2022/06/11 00:26:26;;;;;;;16.10;9.82;;;;;;;;;;5086470;28;20119;-66
2022/06/11 00:28:52;;;;;;;17.55;9.65;;;;;;;;;;5098069;28;20042;-66
2022/06/11 00:31:18;;;;;;;13.40;9.50;;;;;;;;;;5091525;28;20043;-66
2022/06/11 00:33:44;;;;;;;11.98;8.27;;;;;;;;;;5101906;28;20166;-66
2022/06/11 00:36:11;;;;;;;13.77;8.57;;;;;;;;;;5092305;28;20079;-66
2022/06/11 00:38:38;;;;;;;13.63;7.97;;;;;;;;;;5090284;28;20482;-66
2022/06/11 00:41:06;;;;;;;13.82;8.07;;;;;;;;;;5086224;28;20048;-66
2022/06/11 00:43:32;;;;;;;13.05;7.57;;;;;;;;;;5082120;28;20142;-66
2022/06/11 00:46:21;;;;;;;14.60;7.75;;;;;;;;;;5072534;28;20068;-66
2022/06/11 00:48:47;;;;;;;14.35;7.85;;;;;;;;;;5086241;28;20040;-66
2022/06/11 00:51:15;;;;;;;10.73;7.40;;;;;;;;;;5069105;28;20040;-66
2022/06/11 00:53:44;;;;;;;13.48;7.30;;;;;;;;;;5095287;28;20035;-66
2022/06/11 00:56:12;;;;;;;15.27;7.75;;;;;;;;;;5112202;28;20036;-66
2022/06/11 00:58:40;;;;;;;16.40;7.18;;;;;;;;;;5091131;28;20035;-66
2022/06/11 01:01:07;;;;;;;12.82;7.70;;;;;;;;;;5101530;28;20463;-66
2022/06/11 01:03:35;;;;;;;12.60;7.90;;;;;;;;;;5081659;28;20047;-66
2022/06/11 01:06:01;;;;;;;13.55;7.57;;;;;;;;;;5090938;28;20036;-66
2022/06/11 01:08:45;;;;;;;12.80;7.53;;;;;;;;;;5089290;28;20400;-66
2022/06/11 01:11:20;;;;;;;14.13;7.78;;;;;;;;;;5090310;28;20028;-66
2022/06/11 01:13:46;;;;;;;11.80;7.70;;;;;;;;;;5105969;28;20120;-66
2022/06/11 01:16:16;;;;;;;12.02;7.75;;;;;;;;;;5071897;28;20068;-66
2022/06/11 01:18:45;;;;;;;13.38;7.32;;;;;;;;;;5071514;28;20040;-66
2022/06/11 01:21:14;;;;;;;11.73;7.88;;;;;;;;;;5088449;28;20089;-66
2022/06/11 01:23:44;;;;;;;15.20;7.85;;;;;;;;;;5101756;28;20031;-66
2022/06/11 01:26:09;;;;;;;11.98;7.35;;;;;;;;;;5112230;28;20039;-66
2022/06/11 01:28:39;;;;;;;14.05;7.68;;;;;;;;;;5094979;28;20039;-66
2022/06/11 01:31:07;;;;;;;10.70;7.88;;;;;;;;;;5098276;28;20039;-66
2022/06/11 01:33:43;;;;;;;13.35;7.50;;;;;;;;;;5092466;28;20129;-66
2022/06/11 01:36:18;;;;;;;12.85;8.02;;;;;;;;;;5091124;28;20044;-66
2022/06/11 01:38:58;;;;;;;12.77;7.38;;;;;;;;;;5067856;28;20504;-66
2022/06/11 01:41:30;;;;;;;10.57;7.32;;;;;;;;;;5106000;28;20036;-66
2022/06/11 01:43:58;;;;;;;11.63;7.25;;;;;;;;;;5070802;28;20036;-66
2022/06/11 01:46:27;;;;;;;12.50;7.63;;;;;;;;;;5090861;28;20374;-66
2022/06/11 01:49:05;;;;;;;10.55;7.30;;;;;;;;;;5088764;28;20520;-66
2022/06/11 01:51:33;;;;;;;13.25;7.43;;;;;;;;;;5090542;28;20040;-66
2022/06/11 01:54:12;;;;;;;14.25;7.93;;;;;;;;;;5072323;28;20635;-67
2022/06/11 01:56:44;;;;;;;12.88;7.50;;;;;;;;;;5089298;28;20051;-66
2022/06/11 01:59:19;;;;;;;13.00;7.55;;;;;;;;;;5079448;28;20040;-66
2022/06/11 02:01:52;;;;;;;12.32;7.53;;;;;;;;;;5085500;28;20050;-66
2022/06/11 02:04:21;;;;;;;10.88;7.70;;;;;;;;;;5071677;28;20125;-66
2022/06/11 02:06:47;;;;;;;11.98;8.00;;;;;;;;;;5090262;28;20043;-66
2022/06/11 02:09:19;;;;;;;13.07;7.50;;;;;;;;;;5070395;28;20906;-66
2022/06/11 02:11:46;;;;;;;10.90;7.60;;;;;;;;;;5093372;28;20047;-66
2022/06/11 02:14:25;;;;;;;12.80;7.65;;;;;;;;;;5089714;28;20393;-66
2022/06/11 02:16:51;;;;;;;12.23;7.70;;;;;;;;;;5085553;28;20478;-66
2022/06/11 02:19:22;;;;;;;12.98;8.35;;;;;;;;;;5086551;28;20029;-67
2022/06/11 02:21:50;;;;;;;10.93;7.68;;;;;;;;;;5111645;22;20044;-63
2022/06/11 02:24:22;;;;;;;10.68;8.43;;;;;;;;;;5115123;28;20071;-63
2022/06/11 02:26:51;;;;;;;15.68;9.48;;;;;;;;;;5112630;27;20039;-63
2022/06/11 02:29:19;;;;;;;21.13;11.30;;;;;;;;;;5112675;28;20052;-63
2022/06/11 02:31:48;;;;;;;15.80;11.73;;;;;;;;;;5114652;28;20082;-63
2022/06/11 02:34:15;;;;;;;18.13;12.88;;;;;;;;;;5112236;28;20058;-63
2022/06/11 02:36:48;;;;;;;18.73;12.77;;;;;;;;;;5114342;28;20031;-63
2022/06/11 02:39:14;;;;;;;19.88;12.85;;;;;;;;;;5110750;28;20038;-63
2022/06/11 02:41:42;;;;;;;19.23;13.20;;;;;;;;;;5114576;28;20031;-63
2022/06/11 02:44:08;;;;;;;18.63;12.75;;;;;;;;;;5113895;28;20491;-63
2022/06/11 02:46:43;;;;;;;16.25;12.90;;;;;;;;;;5113099;28;20074;-63
2022/06/11 02:49:12;;;;;;;20.80;13.23;;;;;;;;;;5110792;28;20054;-64
2022/06/11 02:51:38;;;;;;;18.77;13.70;;;;;;;;;;5106296;28;20038;-63
2022/06/11 02:54:04;;;;;;;18.73;13.00;;;;;;;;;;5111663;28;20036;-63
2022/06/11 02:56:30;;;;;;;20.65;13.68;;;;;;;;;;5112610;28;20118;-63
2022/06/11 02:58:57;;;;;;;19.77;13.82;;;;;;;;;;5113354;28;20040;-63
2022/06/11 03:01:24;;;;;;;18.85;14.05;;;;;;;;;;5114315;28;20036;-63
2022/06/11 03:03:51;;;;;;;17.00;13.40;;;;;;;;;;5110694;28;20035;-63
2022/06/11 03:06:18;;;;;;;21.50;13.15;;;;;;;;;;5108406;28;20657;-63
2022/06/11 03:08:44;;;;;;;18.88;13.57;;;;;;;;;;5108919;28;20062;-63
2022/06/11 03:11:10;;;;;;;20.45;13.40;;;;;;;;;;5113696;28;20435;-63
2022/06/11 03:13:36;;;;;;;18.65;12.77;;;;;;;;;;5112962;28;20032;-63
2022/06/11 03:16:02;;;;;;;20.60;12.23;;;;;;;;;;5112545;28;20933;-63
2022/06/11 03:18:28;;;;;;;18.55;12.18;;;;;;;;;;5112487;28;20397;-63
2022/06/11 03:20:55;;;;;;;20.40;12.52;;;;;;;;;;5110538;28;20035;-63
2022/06/11 03:23:21;;;;;;;16.15;11.82;;;;;;;;;;5112098;28;20035;-63
2022/06/11 03:25:47;;;;;;;17.20;10.48;;;;;;;;;;5112549;28;20508;-63
2022/06/11 03:28:23;;;;;;;12.85;9.68;;;;;;;;;;5112503;28;20036;-63
2022/06/11 03:30:50;;;;;;;11.70;9.05;;;;;;;;;;5111701;27;20043;-63
2022/06/11 03:33:17;;;;;;;14.23;8.95;;;;;;;;;;5094131;28;20088;-63
2022/06/11 03:35:44;;;;;;;14.52;8.70;;;;;;;;;;5112727;28;20439;-63
2022/06/11 03:38:11;;;;;;;16.85;9.43;;;;;;;;;;5111548;28;20039;-63
2022/06/11 03:40:37;;;;;;;12.40;8.85;;;;;;;;;;5112338;28;20036;-63
2022/06/11 03:43:04;;;;;;;15.00;8.45;;;;;;;;;;5111995;28;20040;-63
2022/06/11 03:45:31;;;;;;;12.85;7.63;;;;;;;;;;5094517;28;20051;-63
2022/06/11 03:47:57;;;;;;;12.57;8.20;;;;;;;;;;5112452;28;20043;-63
2022/06/11 03:50:25;;;;;;;15.05;7.63;;;;;;;;;;5091824;28;20096;-63
2022/06/11 03:52:51;;;;;;;12.00;7.28;;;;;;;;;;5107890;28;20071;-63
2022/06/11 03:55:17;;;;;;;11.77;7.15;;;;;;;;;;5112510;28;20040;-63
2022/06/11 03:57:44;;;;;;;11.65;6.28;;;;;;;;;;5112676;28;20043;-63
2022/06/11 04:00:12;;;;;;;12.00;6.28;;;;;;;;;;5111199;28;20048;-63
2022/06/11 04:02:38;;;;;;;13.00;6.28;;;;;;;;;;5110468;28;20377;-63
2022/06/11 04:05:05;;;;;;;10.10;5.65;;;;;;;;;;5105772;28;20069;-63
2022/06/11 04:07:31;;;;;;;12.15;5.18;;;;;;;;;;5110129;28;20443;-63
2022/06/11 04:09:58;;;;;;;13.90;4.82;;;;;;;;;;5111150;28;20043;-63
2022/06/11 04:12:24;;;;;;;10.73;4.57;;;;;;;;;;5093854;28;20040;-63
2022/06/11 04:14:51;;;;;;;10.07;4.40;;;;;;;;;;5112583;28;20066;-63
2022/06/11 04:17:20;;;;;;;10.48;4.70;;;;;;;;;;5092101;28;20264;-63
2022/06/11 04:19:47;;;;;;;10.00;4.50;;;;;;;;;;5111324;28;20515;-63
2022/06/11 04:22:13;;;;;;;10.50;3.65;;;;;;;;;;5110353;28;20767;-64
2022/06/11 04:24:39;;;;;;;9.07;4.18;;;;;;;;;;5093907;28;20039;-63
2022/06/11 04:27:07;;;;;;;12.30;4.10;;;;;;;;;;5111601;28;20047;-63
2022/06/11 04:29:35;;;;;;;11.55;4.05;;;;;;;;;;5093973;28;20047;-63
2022/06/11 04:32:02;;;;;;;13.55;4.18;;;;;;;;;;5108724;28;20519;-63
2022/06/11 04:34:29;;;;;;;10.18;3.88;;;;;;;;;;5094637;28;20051;-63
2022/06/11 04:36:55;;;;;;;9.18;4.28;;;;;;;;;;5092898;28;20040;-63
2022/06/11 04:39:23;;;;;;;11.27;3.85;;;;;;;;;;5098537;28;20473;-63
2022/06/11 04:41:49;;;;;;;11.65;3.80;;;;;;;;;;5111396;28;20093;-63
2022/06/11 04:44:15;;;;;;;10.43;4.20;;;;;;;;;;5110180;28;20051;-63
2022/06/11 04:46:41;;;;;;;11.48;4.10;;;;;;;;;;5111301;28;20032;-63
2022/06/11 04:49:08;;;;;;;13.32;4.10;;;;;;;;;;5110306;28;20438;-63
2022/06/11 04:51:34;;;;;;;14.40;4.65;;;;;;;;;;5111210;28;20039;-63
2022/06/11 04:54:00;;;;;;;10.40;4.38;;;;;;;;;;5110035;28;20088;-63
2022/06/11 04:56:27;;;;;;;11.30;4.80;;;;;;;;;;5111219;28;20031;-63
2022/06/11 04:58:53;;;;;;;10.70;4.82;;;;;;;;;;5091149;28;20110;-63
2022/06/11 05:01:21;;;;;;;10.38;4.97;;;;;;;;;;5107836;28;20465;-63
2022/06/11 05:03:47;;;;;;;10.43;5.00;;;;;;;;;;5110486;28;21336;-65
2022/06/11 05:06:15;;;;;;;12.02;5.18;;;;;;;;;;5110882;28;20039;-63
2022/06/11 05:08:42;;;;;;;10.30;4.93;;;;;;;;;;5112208;28;20110;-63
2022/06/11 05:11:08;;;;;;;11.55;5.13;;;;;;;;;;5093220;28;20047;-63
2022/06/11 05:13:34;;;;;;;12.48;5.95;;;;;;;;;;5104523;28;20042;-63
2022/06/11 05:16:00;;;;;;;12.45;5.18;;;;;;;;;;5104733;28;20416;-64
2022/06/11 05:18:27;;;;;;;15.25;5.30;;;;;;;;;;5092293;28;20044;-63
2022/06/11 05:20:54;;;;;;;7.80;4.97;;;;;;;;;;5110959;28;20393;-63
2022/06/11 05:23:20;;;;;;;10.90;5.00;;;;;;;;;;5110676;28;20108;-63
2022/06/11 05:25:47;;;;;;;9.73;4.88;;;;;;;;;;5108810;28;20044;-63
2022/06/11 05:28:19;;;;;;;12.75;5.00;;;;;;;;;;5108710;28;20058;-63
2022/06/11 05:30:45;;;;;;;11.93;4.45;;;;;;;;;;5107464;28;20501;-63
2022/06/11 05:33:12;;;;;;;11.35;4.13;;;;;;;;;;5108128;28;20063;-63
2022/06/11 05:35:38;;;;;;;14.02;4.70;;;;;;;;;;5107082;28;20795;-63
2022/06/11 05:38:06;;;;;;;8.40;4.25;;;;;;;;;;5082179;28;20071;-63
2022/06/11 05:40:35;;;;;;;10.25;4.65;;;;;;;;;;5107719;28;20035;-63
2022/06/11 05:43:01;;;;;;;16.48;5.95;;;;;;;;;;5107761;28;20064;-63
2022/06/11 05:45:36;;;;;;;9.82;4.82;;;;;;;;;;5109791;28;20508;-63
2022/06/11 05:48:02;;;;;;;16.20;5.30;;;;;;;;;;5107812;28;20035;-63
2022/06/11 05:50:31;;;;;;;12.32;4.70;;;;;;;;;;5108748;28;20078;-63
2022/06/11 05:52:58;;;;;;;11.60;4.70;;;;;;;;;;5108816;28;20044;-63
2022/06/11 05:55:25;;;;;;;12.18;4.63;;;;;;;;;;5108969;28;20081;-63
2022/06/11 05:57:52;;;;;;;17.50;4.57;;;;;;;;;;5110945;28;20382;-64
2022/06/11 06:00:19;;;;;;;10.32;4.38;;;;;;;;;;5109826;28;20182;-63
2022/06/11 06:02:45;;;;;;;17.10;4.72;;;;;;;;;;5113658;28;20052;-63
2022/06/11 06:05:14;;;;;;;11.90;4.15;;;;;;;;;;5112353;28;20463;-63
2022/06/11 06:07:40;;;;;;;12.48;4.38;;;;;;;;;;5112360;27;20039;-63
2022/06/11 06:10:06;;;;;;;12.57;4.05;;;;;;;;;;5095500;28;20035;-63
2022/06/11 06:12:33;;;;;;;13.70;4.40;;;;;;;;;;5112628;28;20550;-63
2022/06/11 06:15:09;;;;;;;14.60;4.40;;;;;;;;;;5112985;28;20040;-63
2022/06/11 06:17:35;;;;;;;11.68;4.10;;;;;;;;;;5106260;28;20035;-63
2022/06/11 06:20:01;;;;;;;14.52;4.00;;;;;;;;;;5112456;28;20122;-63
2022/06/11 06:22:27;;;;;;;12.55;3.70;;;;;;;;;;5110293;28;20070;-63
2022/06/11 06:24:53;;;;;;;14.63;4.35;;;;;;;;;;5078822;28;20530;-63
2022/06/11 06:27:19;;;;;;;13.15;3.55;;;;;;;;;;5112167;28;20042;-64
2022/06/11 06:29:45;;;;;;;16.83;4.05;;;;;;;;;;5112587;28;20122;-63
2022/06/11 06:32:11;;;;;;;12.68;3.78;;;;;;;;;;5104972;27;20039;-63
2022/06/11 06:34:38;;;;;;;18.70;4.05;;;;;;;;;;5104711;28;20031;-63
2022/06/11 06:37:04;;;;;;;16.88;4.50;;;;;;;;;;5107906;28;20083;-63
2022/06/11 06:39:31;;;;;;;19.33;4.82;;;;;;;;;;5112459;28;20074;-63
2022/06/11 06:41:58;;;;;;;18.88;4.30;;;;;;;;;;5110600;28;20075;-63
2022/06/11 06:44:24;;;;;;;17.83;4.32;;;;;;;;;;5112681;28;20078;-63
2022/06/11 06:46:50;;;;;;;18.73;4.30;;;;;;;;;;5111156;28;20035;-63
2022/06/11 06:49:16;;;;;;;17.92;4.10;;;;;;;;;;5103259;27;20389;-63
2022/06/11 06:51:43;;;;;;;14.93;4.45;;;;;;;;;;5108800;28;20485;-64
2022/06/11 06:54:09;;;;;;;19.00;5.00;;;;;;;;;;5112708;28;20119;-63
2022/06/11 06:56:35;;;;;;;13.55;4.03;;;;;;;;;;5110696;28;20054;-63
2022/06/11 06:59:01;;;;;;;14.77;4.25;;;;;;;;;;5105735;28;20038;-63
2022/06/11 07:01:28;;;;;;;18.25;4.55;;;;;;;;;;5110656;28;20043;-64
2022/06/11 07:03:55;;;;;;;16.05;3.92;;;;;;;;;;5108835;28;20036;-64
2022/06/11 07:06:21;;;;;;;16.05;4.07;;;;;;;;;;5107057;28;20035;-64
2022/06/11 07:08:48;;;;;;;14.73;3.72;;;;;;;;;;5108183;28;20039;-64
2022/06/11 07:11:14;;;;;;;13.60;3.75;;;;;;;;;;5110026;28;20038;-63
2022/06/11 07:13:40;;;;;;;14.40;3.80;;;;;;;;;;5110657;28;20054;-64
2022/06/11 07:16:06;;;;;;;15.48;4.00;;;;;;;;;;5107028;28;20040;-64
2022/06/11 07:18:35;;;;;;;17.45;4.00;;;;;;;;;;5106398;28;20031;-63
2022/06/11 07:21:03;;;;;;;15.05;3.90;;;;;;;;;;5109414;28;20126;-63
2022/06/11 07:23:33;;;;;;;16.73;4.55;;;;;;;;;;5085820;28;20410;-64
2022/06/11 07:25:59;;;;;;;20.20;4.32;;;;;;;;;;5109765;27;20063;-63
2022/06/11 07:28:28;;;;;;;19.80;4.75;;;;;;;;;;5113463;27;20036;-63
2022/06/11 07:30:55;;;;;;;16.02;4.10;;;;;;;;;;5108108;28;20042;-64
2022/06/11 07:33:23;;;;;;;18.63;4.18;;;;;;;;;;5107970;28;20122;-64
2022/06/11 07:35:50;;;;;;;16.33;4.03;;;;;;;;;;5107664;27;20424;-64
2022/06/11 07:38:17;;;;;;;15.10;3.70;;;;;;;;;;5109626;27;20036;-64
2022/06/11 07:40:43;;;;;;;15.43;3.92;;;;;;;;;;5109561;28;20036;-64
2022/06/11 07:43:09;;;;;;;20.52;3.95;;;;;;;;;;5111225;28;20408;-64
2022/06/11 07:45:36;;;;;;;18.80;4.38;;;;;;;;;;5110359;28;20122;-64
2022/06/11 07:48:02;;;;;;;20.30;4.30;;;;;;;;;;5110890;27;20039;-64
2022/06/11 07:50:29;;;;;;;20.48;4.43;;;;;;;;;;5111188;28;20039;-64
2022/06/11 07:52:56;;;;;;;21.95;4.45;;;;;;;;;;5109867;28;20434;-64
2022/06/11 07:55:23;;;;;;;16.92;4.15;;;;;;;;;;5111716;28;20036;-64
2022/06/11 07:57:49;;;;;;;17.88;4.13;;;;;;;;;;5103593;27;20039;-64
2022/06/11 08:00:18;;;;;;;20.42;4.43;;;;;;;;;;5111370;27;20476;-64
2022/06/11 08:02:44;;;;;;;20.33;4.28;;;;;;;;;;5111299;27;20083;-64
2022/06/11 08:05:10;;;;;;;18.70;4.03;;;;;;;;;;5109507;28;20039;-64
2022/06/11 08:07:36;;;;;;;17.88;4.18;;;;;;;;;;5110499;27;20031;-65
2022/06/11 08:10:02;;;;;;;18.75;4.57;;;;;;;;;;5093115;28;20511;-64
2022/06/11 08:12:28;;;;;;;21.35;4.40;;;;;;;;;;5110755;28;20044;-64
2022/06/11 08:14:56;;;;;;;13.70;3.88;;;;;;;;;;5093963;28;20490;-64
2022/06/11 08:17:26;;;;;;;17.55;4.35;;;;;;;;;;5110289;27;20382;-64
2022/06/11 08:19:52;;;;;;;17.80;4.30;;;;;;;;;;5109303;28;20081;-64
2022/06/11 08:22:19;;;;;;;18.85;4.68;;;;;;;;;;5117032;22;20036;-66
2022/06/11 08:24:45;;;;;;;16.38;4.00;;;;;;;;;;5084148;28;20047;-66
2022/06/11 08:27:11;;;;;;;18.40;4.70;;;;;;;;;;5069519;28;20519;-66
2022/06/11 08:29:37;;;;;;;16.95;4.40;;;;;;;;;;5086447;28;20051;-66
2022/06/11 08:32:05;;;;;;;20.48;4.00;;;;;;;;;;5070097;28;20044;-67
2022/06/11 08:34:31;;;;;;;14.88;4.20;;;;;;;;;;5065261;28;20045;-66
2022/06/11 08:36:57;;;;;;;19.65;4.00;;;;;;;;;;5067672;28;20037;-66
2022/06/11 08:39:23;;;;;;;16.10;4.20;;;;;;;;;;5047291;28;20119;-67
2022/06/11 08:41:49;;;;;;;20.73;4.28;;;;;;;;;;5071088;28;20130;-67
2022/06/11 08:44:16;;;;;;;21.10;3.90;;;;;;;;;;5057828;28;20093;-66
2022/06/11 08:46:43;;;;;;;19.90;4.28;;;;;;;;;;5082122;28;20036;-66
2022/06/11 08:49:28;;;;;;;18.67;4.07;;;;;;;;;;5051732;28;20052;-66
2022/06/11 08:51:56;;;;;;;19.05;4.50;;;;;;;;;;5061882;28;20256;-66
2022/06/11 08:54:37;;;;;;;19.02;3.80;;;;;;;;;;5050435;28;20537;-66
2022/06/11 08:57:16;;;;;;;17.70;3.97;;;;;;;;;;5078158;28;20036;-66
2022/06/11 08:59:48;;;;;;;18.48;3.85;;;;;;;;;;5046434;28;20029;-66
2022/06/11 09:02:33;;;;;;;17.77;3.60;;;;;;;;;;5043446;28;20040;-67
2022/06/11 09:05:09;;;;;;;22.08;4.22;;;;;;;;;;5041959;28;20045;-67
2022/06/11 09:07:53;;;;;;;17.60;4.05;;;;;;;;;;5061395;28;20060;-67
2022/06/11 09:10:29;;;;;;;14.85;4.00;;;;;;;;;;5073090;28;20091;-67
2022/06/11 09:13:24;;;;;;;17.55;3.90;;;;;;;;;;5074355;28;20179;-67
2022/06/11 09:16:09;;;;;;;18.88;3.78;;;;;;;;;;4999089;28;20496;-66
2022/06/11 09:18:47;;;;;;;18.77;4.05;;;;;;;;;;5058318;28;20115;-66
2022/06/11 09:21:13;;;;;;;18.45;3.83;;;;;;;;;;5061349;28;20044;-67
2022/06/11 09:23:39;;;;;;;17.38;3.95;;;;;;;;;;5051400;28;20036;-66
2022/06/11 09:26:16;;;;;;;18.88;3.85;;;;;;;;;;5060421;28;20049;-66
2022/06/11 09:28:57;;;;;;;13.43;3.53;;;;;;;;;;5064765;28;20569;-67
2022/06/11 09:31:34;;;;;;;17.67;3.60;;;;;;;;;;5064298;28;20047;-66
2022/06/11 09:34:10;;;;;;;17.63;4.00;;;;;;;;;;5062057;28;20494;-66
2022/06/11 09:36:38;;;;;;;17.80;4.22;;;;;;;;;;5052690;28;20063;-66
2022/06/11 09:39:10;;;;;;;17.15;3.28;;;;;;;;;;5077166;28;20044;-66
2022/06/11 09:41:52;;;;;;;15.25;3.00;;;;;;;;;;5065862;28;20040;-66
2022/06/11 09:44:27;;;;;;;16.58;3.53;;;;;;;;;;5064286;28;20676;-66
2022/06/11 09:46:59;;;;;;;16.90;3.40;;;;;;;;;;5065493;28;22000;-66
2022/06/11 09:49:37;;;;;;;15.48;3.38;;;;;;;;;;5061839;28;20037;-66
2022/06/11 09:52:07;;;;;;;14.05;3.42;;;;;;;;;;5059481;28;20255;-65
2022/06/11 09:54:36;;;;;;;13.75;3.28;;;;;;;;;;5059367;28;20039;-65
2022/06/11 09:57:05;;;;;;;12.27;2.92;;;;;;;;;;5062845;28;20052;-65
2022/06/11 09:59:40;;;;;;;14.90;2.95;;;;;;;;;;5045757;28;20044;-66
2022/06/11 10:02:32;;;;;;;14.15;2.95;;;;;;;;;;5077041;28;20143;-67
2022/06/11 10:04:57;;;;;;;14.05;2.72;;;;;;;;;;5065428;28;20055;-67
2022/06/11 10:07:26;;;;;;;12.00;2.67;;;;;;;;;;5045574;28;20036;-67
2022/06/11 10:09:52;;;;;;;13.27;2.55;;;;;;;;;;5060626;28;20041;-66
2022/06/11 10:12:24;;;;;;;11.32;2.67;;;;;;;;;;5063751;28;20032;-66
2022/06/11 10:14:59;;;;;;;9.30;2.50;;;;;;;;;;5048784;28;20040;-67
2022/06/11 10:17:44;;;;;;;11.70;2.28;;;;;;;;;;5070420;28;20513;-67
2022/06/11 10:20:17;;;;;;;13.50;3.00;;;;;;;;;;5070205;28;20687;-67
2022/06/11 10:22:45;;;;;;;14.60;2.53;;;;;;;;;;5058732;28;20033;-67
2022/06/11 10:25:26;;;;;;;10.93;2.42;;;;;;;;;;5066882;28;20033;-67
2022/06/11 10:27:59;;;;;;;14.10;2.95;;;;;;;;;;5060314;28;20036;-67
2022/06/11 10:30:29;;;;;;;13.02;2.58;;;;;;;;;;5068015;28;20037;-67
2022/06/11 10:32:56;;;;;;;11.13;2.58;;;;;;;;;;5066369;28;20093;-66
2022/06/11 10:35:24;;;;;;;14.15;2.85;;;;;;;;;;5067718;28;20090;-67
2022/06/11 10:38:19;;;;;;;11.93;2.40;;;;;;;;;;5064838;28;20398;-67
2022/06/11 10:40:47;;;;;;;12.63;2.72;;;;;;;;;;5066353;28;20394;-67
2022/06/11 10:43:22;;;;;;;13.43;2.67;;;;;;;;;;5071812;28;20040;-67
2022/06/11 10:45:49;;;;;;;10.57;2.38;;;;;;;;;;5069267;28;20075;-66
2022/06/11 10:48:17;;;;;;;9.73;2.00;;;;;;;;;;5077814;28;20455;-66
2022/06/11 10:50:43;;;;;;;8.25;1.92;;;;;;;;;;5072477;28;20036;-66
2022/06/11 10:53:18;;;;;;;11.02;2.70;;;;;;;;;;5055944;28;20048;-67
2022/06/11 10:56:05;;;;;;;11.48;2.42;;;;;;;;;;5073053;28;20406;-67
2022/06/11 10:58:42;;;;;;;11.93;2.88;;;;;;;;;;5076372;28;20118;-67
2022/06/11 11:01:09;;;;;;;9.63;2.17;;;;;;;;;;5061182;28;20554;-67
2022/06/11 11:03:41;;;;;;;7.50;2.00;;;;;;;;;;5068137;28;20076;-66
2022/06/11 11:06:09;;;;;;;12.57;2.70;;;;;;;;;;5080116;28;20040;-66
2022/06/11 11:08:35;;;;;;;11.85;2.50;;;;;;;;;;5066655;28;20119;-66
2022/06/11 11:11:02;;;;;;;8.70;2.17;;;;;;;;;;5052955;28;20040;-67
2022/06/11 11:13:35;;;;;;;11.95;2.67;;;;;;;;;;5073719;28;20044;-67
2022/06/11 11:16:15;;;;;;;12.02;2.20;;;;;;;;;;5062498;28;20052;-67
2022/06/11 11:18:45;;;;;;;14.05;2.75;;;;;;;;;;5070370;28;20063;-68
2022/06/11 11:21:19;;;;;;;11.90;2.70;;;;;;;;;;5066124;28;20048;-68
2022/06/11 11:23:46;;;;;;;14.77;2.78;;;;;;;;;;5065745;28;20036;-66
2022/06/11 11:26:34;;;;;;;9.68;2.33;;;;;;;;;;5076090;28;20040;-67
2022/06/11 11:29:05;;;;;;;9.60;2.33;;;;;;;;;;5067599;28;20050;-66
2022/06/11 11:31:51;;;;;;;12.05;2.70;;;;;;;;;;5061467;28;20119;-67
2022/06/11 11:34:23;;;;;;;10.52;2.92;;;;;;;;;;5057160;28;20082;-68
2022/06/11 11:36:49;;;;;;;11.38;2.63;;;;;;;;;;5053998;28;20056;-67
2022/06/11 11:39:22;;;;;;;11.63;2.78;;;;;;;;;;5073100;28;20102;-67
2022/06/11 11:42:06;;;;;;;11.45;2.40;;;;;;;;;;5072749;28;20040;-67
2022/06/11 11:44:37;;;;;;;11.38;2.72;;;;;;;;;;5084563;28;20115;-67
2022/06/11 11:47:04;;;;;;;7.60;2.15;;;;;;;;;;5093347;28;20043;-66
2022/06/11 11:49:33;;;;;;;11.50;2.47;;;;;;;;;;5084530;28;20392;-67
2022/06/11 11:52:04;;;;;;;12.32;2.65;;;;;;;;;;5084250;28;20039;-67
2022/06/11 11:54:30;;;;;;;12.27;2.58;;;;;;;;;;5092844;28;20040;-66
2022/06/11 11:56:57;;;;;;;18.48;2.88;;;;;;;;;;5085460;28;20048;-67
2022/06/11 11:59:30;;;;;;;8.77;2.33;;;;;;;;;;5084558;28;20493;-66
2022/06/11 12:01:57;;;;;;;9.43;2.25;;;;;;;;;;5092881;28;20085;-66
2022/06/11 12:04:30;;;;;;;9.95;2.25;;;;;;;;;;5065023;28;20386;-66
2022/06/11 12:06:57;;;;;;;10.20;2.30;;;;;;;;;;5080571;28;20036;-67
2022/06/11 12:09:28;;;;;;;14.30;2.65;;;;;;;;;;5088242;28;20079;-66
2022/06/11 12:12:14;;;;;;;13.65;2.55;;;;;;;;;;5080034;28;20082;-67
2022/06/11 12:15:01;;;;;;;13.07;3.03;;;;;;;;;;5061260;28;20454;-67
2022/06/11 12:17:30;;;;;;;11.80;2.72;;;;;;;;;;5083829;28;20048;-67
2022/06/11 12:20:00;;;;;;;13.32;2.80;;;;;;;;;;5092760;28;20036;-67
2022/06/11 12:22:37;;;;;;;11.80;2.60;;;;;;;;;;5092615;28;20466;-66
2022/06/11 12:25:04;;;;;;;12.38;2.67;;;;;;;;;;5079771;28;20438;-66
2022/06/11 12:27:36;;;;;;;14.65;3.33;;;;;;;;;;5091768;28;20505;-66
2022/06/11 12:30:04;;;;;;;11.48;2.60;;;;;;;;;;5082225;28;20058;-67
2022/06/11 12:32:31;;;;;;;14.70;2.88;;;;;;;;;;5083591;28;20493;-66
2022/06/11 12:35:00;;;;;;;12.40;2.95;;;;;;;;;;5092652;28;20303;-66
2022/06/11 12:37:26;;;;;;;9.40;2.53;;;;;;;;;;5082048;28;20049;-66
2022/06/11 12:40:01;;;;;;;12.20;2.78;;;;;;;;;;5083287;28;20040;-66
2022/06/11 12:42:27;;;;;;;10.65;2.60;;;;;;;;;;5092060;28;20044;-66
2022/06/11 12:44:59;;;;;;;9.60;2.50;;;;;;;;;;5072230;28;20090;-67
2022/06/11 12:47:25;;;;;;;9.88;2.45;;;;;;;;;;5082141;28;20118;-66
2022/06/11 12:49:51;;;;;;;9.52;2.67;;;;;;;;;;5078392;28;20116;-67
2022/06/11 12:52:23;;;;;;;10.77;2.75;;;;;;;;;;5071683;28;20049;-67
2022/06/11 12:55:08;;;;;;;11.43;2.83;;;;;;;;;;5071679;28;20372;-66
2022/06/11 12:57:54;;;;;;;14.95;2.80;;;;;;;;;;5069948;28;20068;-67
2022/06/11 13:00:23;;;;;;;10.32;2.28;;;;;;;;;;5060933;28;20044;-66
2022/06/11 13:02:55;;;;;;;13.15;2.90;;;;;;;;;;5071415;28;20076;-66
2022/06/11 13:05:21;;;;;;;11.20;2.72;;;;;;;;;;5070578;28;20094;-67
2022/06/11 13:07:55;;;;;;;11.95;3.00;;;;;;;;;;5071547;28;20044;-66
2022/06/11 13:10:34;;;;;;;9.52;2.30;;;;;;;;;;5071772;28;20090;-66
2022/06/11 13:13:06;;;;;;;10.52;2.80;;;;;;;;;;5069267;28;20082;-66
2022/06/11 13:15:36;;;;;;;15.32;3.53;;;;;;;;;;5082843;28;20028;-66
2022/06/11 13:18:05;;;;;;;12.40;2.60;;;;;;;;;;5091899;28;20393;-67
2022/06/11 13:20:35;;;;;;;33.70;4.18;;;;;;;;;;5085599;28;20520;-66
2022/06/11 13:23:05;;;;;;;18.08;3.25;;;;;;;;;;5079660;28;20040;-67
2022/06/11 13:25:40;;;;;;;11.43;2.72;;;;;;;;;;5088155;28;20040;-67
2022/06/11 13:28:25;;;;;;;13.40;2.65;;;;;;;;;;5078278;28;20395;-67
2022/06/11 13:31:17;;;;;;;18.00;3.08;;;;;;;;;;5051078;28;20052;-66
2022/06/11 13:33:55;;;;;;;10.43;2.55;;;;;;;;;;5020811;28;20140;-67
2022/06/11 13:36:36;;;;;;;13.50;2.70;;;;;;;;;;5079480;28;20079;-67
2022/06/11 13:39:15;;;;;;;14.35;2.80;;;;;;;;;;5091604;28;20122;-66
2022/06/11 13:41:47;;;;;;;9.98;2.95;;;;;;;;;;5079563;28;20154;-66
2022/06/11 13:44:25;;;;;;;14.55;2.55;;;;;;;;;;5069429;28;20041;-67
2022/06/11 13:47:23;;;;;;;11.52;2.63;;;;;;;;;;5076387;28;20510;-67
2022/06/11 13:49:58;;;;;;;12.10;2.60;;;;;;;;;;5071347;28;20082;-66
2022/06/11 13:55:17;;;;;;;14.10;2.97;;;;;;;;;;5068978;28;20439;-67
2022/06/11 13:57:49;;;;;;;14.30;2.85;;;;;;;;;;5071050;28;20032;-66
2022/06/11 14:00:24;;;;;;;15.02;3.08;;;;;;;;;;5071367;28;20426;-67
2022/06/11 14:02:50;;;;;;;10.25;2.50;;;;;;;;;;5070644;28;20452;-67
2022/06/11 14:05:18;;;;;;;9.40;2.50;;;;;;;;;;5071298;28;20045;-66
2022/06/11 14:07:45;;;;;;;16.65;3.10;;;;;;;;;;5071187;28;20044;-66
2022/06/11 14:10:32;;;;;;;10.38;2.80;;;;;;;;;;5076746;28;20048;-66
2022/06/11 14:12:59;;;;;;;13.15;2.95;;;;;;;;;;5079140;28;20056;-67
2022/06/11 14:15:31;;;;;;;7.40;1.92;;;;;;;;;;5071205;28;20115;-67
2022/06/11 14:18:17;;;;;;;10.30;2.33;;;;;;;;;;5074491;28;20493;-67
2022/06/11 14:20:58;;;;;;;14.73;2.97;;;;;;;;;;5074239;28;20033;-66
2022/06/11 14:23:24;;;;;;;13.82;2.90;;;;;;;;;;5108631;22;20527;-63
2022/06/11 14:25:54;;;;;;;14.02;2.67;;;;;;;;;;5100948;28;20131;-64
2022/06/11 14:28:21;;;;;;;16.08;2.92;;;;;;;;;;5094648;28;20032;-64
2022/06/11 14:30:53;;;;;;;8.82;2.70;;;;;;;;;;5115069;28;20051;-64
2022/06/11 14:33:28;;;;;;;12.98;3.15;;;;;;;;;;5114954;28;20044;-64
2022/06/11 14:35:56;;;;;;;12.55;2.88;;;;;;;;;;5100134;28;20033;-63
2022/06/11 14:38:24;;;;;;;11.63;2.60;;;;;;;;;;5083971;28;20398;-64
2022/06/11 14:41:10;;;;;;;12.07;2.80;;;;;;;;;;5094372;28;20565;-63
2022/06/11 14:43:56;;;;;;;11.77;2.58;;;;;;;;;;5073551;28;20043;-63
2022/06/11 14:46:42;;;;;;;14.65;2.72;;;;;;;;;;5074507;28;20397;-63
2022/06/11 14:49:14;;;;;;;16.35;2.55;;;;;;;;;;5074125;28;20049;-63
2022/06/11 14:51:41;;;;;;;9.60;2.78;;;;;;;;;;5083380;28;20089;-63